sensor_id;sensor_type;location;lat;lon;timestamp;P1;durP1;ratioP1;P2;durP2;ratioP2
30934;SDS011;51033;42.648;23.292;2023-09-19T00:01:06;6.82;;;4.20;;
30934;SDS011;51033;42.648;23.292;2023-09-19T00:03:37;6.97;;;5.53;;
30934;SDS011;51033;42.648;23.292;2023-09-19T00:06:03;5.30;;;4.80;;
30934;SDS011;51033;42.648;23.292;2023-09-19T00:08:33;6.75;;;4.72;;
30934;SDS011;51033;42.648;23.292;2023-09-19T00:10:58;7.18;;;5.22;;
30934;SDS011;51033;42.648;23.292;2023-09-19T00:13:31;7.97;;;5.28;;
30934;SDS011;51033;42.648;23.292;2023-09-19T00:15:57;7.30;;;4.68;;
30934;SDS011;51033;42.648;23.292;2023-09-19T00:18:24;6.50;;;4.93;;
30934;SDS011;51033;42.648;23.292;2023-09-19T00:21:00;5.68;;;5.10;;
30934;SDS011;51033;42.648;23.292;2023-09-19T00:23:26;7.65;;;5.10;;
30934;SDS011;51033;42.648;23.292;2023-09-19T00:25:52;8.30;;;5.13;;
30934;SDS011;51033;42.648;23.292;2023-09-19T00:28:17;5.15;;;4.68;;
30934;SDS011;51033;42.648;23.292;2023-09-19T00:30:45;5.93;;;5.32;;
30934;SDS011;51033;42.648;23.292;2023-09-19T00:38:17;5.57;;;4.90;;
30934;SDS011;51033;42.648;23.292;2023-09-19T00:40:46;5.65;;;5.13;;
30934;SDS011;51033;42.648;23.292;2023-09-19T00:43:13;8.32;;;6.13;;
30934;SDS011;51033;42.648;23.292;2023-09-19T00:45:38;6.43;;;4.63;;
30934;SDS011;51033;42.648;23.292;2023-09-19T00:48:07;10.38;;;6.47;;
30934;SDS011;51033;42.648;23.292;2023-09-19T00:50:34;6.95;;;5.55;;
30934;SDS011;51033;42.648;23.292;2023-09-19T00:53:00;7.10;;;5.57;;
30934;SDS011;51033;42.648;23.292;2023-09-19T00:55:25;6.68;;;5.93;;
30934;SDS011;51033;42.648;23.292;2023-09-19T00:57:55;9.88;;;5.70;;
30934;SDS011;51033;42.648;23.292;2023-09-19T01:00:21;8.60;;;6.13;;
30934;SDS011;51033;42.648;23.292;2023-09-19T01:02:48;9.27;;;5.68;;
30934;SDS011;51033;42.648;23.292;2023-09-19T01:05:13;6.75;;;5.72;;
30934;SDS011;51033;42.648;23.292;2023-09-19T01:07:39;8.18;;;5.63;;
30934;SDS011;51033;42.648;23.292;2023-09-19T01:10:11;6.47;;;5.30;;
30934;SDS011;51033;42.648;23.292;2023-09-19T01:23:17;7.57;;;5.72;;
30934;SDS011;51033;42.648;23.292;2023-09-19T01:29:07;8.23;;;6.05;;
30934;SDS011;51033;42.648;23.292;2023-09-19T01:31:50;6.57;;;5.85;;
30934;SDS011;51033;42.648;23.292;2023-09-19T01:34:19;5.30;;;4.80;;
30934;SDS011;51033;42.648;23.292;2023-09-19T01:36:45;7.85;;;5.68;;
30934;SDS011;51033;42.648;23.292;2023-09-19T01:39:11;8.98;;;5.40;;
30934;SDS011;51033;42.648;23.292;2023-09-19T01:41:41;8.23;;;5.85;;
30934;SDS011;51033;42.648;23.292;2023-09-19T01:44:22;6.82;;;5.20;;
30934;SDS011;51033;42.648;23.292;2023-09-19T01:46:54;8.30;;;5.60;;
30934;SDS011;51033;42.648;23.292;2023-09-19T01:52:10;6.40;;;5.65;;
30934;SDS011;51033;42.648;23.292;2023-09-19T01:54:55;6.95;;;5.75;;
30934;SDS011;51033;42.648;23.292;2023-09-19T02:00:16;7.22;;;5.25;;
30934;SDS011;51033;42.648;23.292;2023-09-19T02:02:46;8.27;;;5.43;;
30934;SDS011;51033;42.648;23.292;2023-09-19T02:05:12;6.15;;;5.47;;
30934;SDS011;51033;42.648;23.292;2023-09-19T02:07:46;6.05;;;5.45;;
30934;SDS011;51033;42.648;23.292;2023-09-19T02:10:12;6.10;;;5.50;;
30934;SDS011;51033;42.648;23.292;2023-09-19T02:12:37;7.63;;;4.90;;
30934;SDS011;51033;42.648;23.292;2023-09-19T02:15:03;8.98;;;5.22;;
30934;SDS011;51033;42.648;23.292;2023-09-19T02:17:32;10.38;;;5.22;;
30934;SDS011;51033;42.648;23.292;2023-09-19T02:19:57;8.73;;;5.55;;
30934;SDS011;51033;42.648;23.292;2023-09-19T02:22:24;6.95;;;5.15;;
30934;SDS011;51033;42.648;23.292;2023-09-19T02:24:49;6.07;;;5.45;;
30934;SDS011;51033;42.648;23.292;2023-09-19T02:27:16;6.47;;;5.45;;
30934;SDS011;51033;42.648;23.292;2023-09-19T02:29:42;8.93;;;5.32;;
30934;SDS011;51033;42.648;23.292;2023-09-19T02:32:08;7.97;;;5.60;;
30934;SDS011;51033;42.648;23.292;2023-09-19T02:34:37;10.88;;;5.90;;
30934;SDS011;51033;42.648;23.292;2023-09-19T02:37:04;7.53;;;5.45;;
30934;SDS011;51033;42.648;23.292;2023-09-19T02:39:30;8.40;;;5.60;;
30934;SDS011;51033;42.648;23.292;2023-09-19T02:42:00;6.38;;;5.78;;
30934;SDS011;51033;42.648;23.292;2023-09-19T02:44:25;8.00;;;5.40;;
30934;SDS011;51033;42.648;23.292;2023-09-19T02:46:51;7.75;;;5.35;;
30934;SDS011;51033;42.648;23.292;2023-09-19T02:49:16;7.05;;;5.70;;
30934;SDS011;51033;42.648;23.292;2023-09-19T02:51:43;7.15;;;4.82;;
30934;SDS011;51033;42.648;23.292;2023-09-19T02:54:09;6.68;;;5.97;;
30934;SDS011;51033;42.648;23.292;2023-09-19T02:56:35;6.15;;;5.07;;
30934;SDS011;51033;42.648;23.292;2023-09-19T02:59:01;10.95;;;5.95;;
30934;SDS011;51033;42.648;23.292;2023-09-19T03:01:27;6.00;;;5.30;;
30934;SDS011;51033;42.648;23.292;2023-09-19T03:03:53;5.50;;;5.00;;
30934;SDS011;51033;42.648;23.292;2023-09-19T03:06:19;5.60;;;5.07;;
30934;SDS011;51033;42.648;23.292;2023-09-19T03:08:45;6.28;;;5.60;;
30934;SDS011;51033;42.648;23.292;2023-09-19T03:11:11;6.53;;;5.35;;
30934;SDS011;51033;42.648;23.292;2023-09-19T03:13:40;8.88;;;6.40;;
30934;SDS011;51033;42.648;23.292;2023-09-19T03:16:07;7.35;;;6.20;;
30934;SDS011;51033;42.648;23.292;2023-09-19T03:18:35;9.15;;;5.75;;
30934;SDS011;51033;42.648;23.292;2023-09-19T03:21:01;7.85;;;6.50;;
30934;SDS011;51033;42.648;23.292;2023-09-19T03:23:27;6.90;;;6.28;;
30934;SDS011;51033;42.648;23.292;2023-09-19T03:25:53;7.30;;;6.43;;
30934;SDS011;51033;42.648;23.292;2023-09-19T03:28:19;6.80;;;6.13;;
30934;SDS011;51033;42.648;23.292;2023-09-19T03:30:46;7.63;;;5.90;;
30934;SDS011;51033;42.648;23.292;2023-09-19T03:33:25;7.50;;;6.70;;
30934;SDS011;51033;42.648;23.292;2023-09-19T03:35:54;8.13;;;6.45;;
30934;SDS011;51033;42.648;23.292;2023-09-19T03:38:20;7.50;;;5.95;;
30934;SDS011;51033;42.648;23.292;2023-09-19T03:40:46;7.65;;;6.32;;
30934;SDS011;51033;42.648;23.292;2023-09-19T03:43:12;9.35;;;6.20;;
30934;SDS011;51033;42.648;23.292;2023-09-19T03:45:38;8.82;;;6.72;;
30934;SDS011;51033;42.648;23.292;2023-09-19T03:48:12;7.75;;;6.18;;
30934;SDS011;51033;42.648;23.292;2023-09-19T03:50:38;12.25;;;6.10;;
30934;SDS011;51033;42.648;23.292;2023-09-19T03:53:03;8.25;;;5.72;;
30934;SDS011;51033;42.648;23.292;2023-09-19T03:55:29;7.65;;;6.07;;
30934;SDS011;51033;42.648;23.292;2023-09-19T03:57:55;7.00;;;6.15;;
30934;SDS011;51033;42.648;23.292;2023-09-19T04:00:21;8.82;;;6.20;;
30934;SDS011;51033;42.648;23.292;2023-09-19T04:02:48;6.78;;;6.00;;
30934;SDS011;51033;42.648;23.292;2023-09-19T04:05:16;13.57;;;5.95;;
30934;SDS011;51033;42.648;23.292;2023-09-19T04:07:41;10.88;;;6.63;;
30934;SDS011;51033;42.648;23.292;2023-09-19T04:10:07;8.52;;;5.78;;
30934;SDS011;51033;42.648;23.292;2023-09-19T04:12:34;7.20;;;6.50;;
30934;SDS011;51033;42.648;23.292;2023-09-19T04:14:59;8.00;;;5.82;;
30934;SDS011;51033;42.648;23.292;2023-09-19T04:17:25;14.75;;;6.90;;
30934;SDS011;51033;42.648;23.292;2023-09-19T04:19:50;11.50;;;6.75;;
30934;SDS011;51033;42.648;23.292;2023-09-19T04:22:16;9.27;;;6.20;;
30934;SDS011;51033;42.648;23.292;2023-09-19T04:24:41;7.75;;;6.35;;
30934;SDS011;51033;42.648;23.292;2023-09-19T04:27:06;8.73;;;6.57;;
30934;SDS011;51033;42.648;23.292;2023-09-19T04:29:32;9.00;;;6.60;;
30934;SDS011;51033;42.648;23.292;2023-09-19T04:31:58;9.23;;;5.88;;
30934;SDS011;51033;42.648;23.292;2023-09-19T04:34:23;10.73;;;6.47;;
30934;SDS011;51033;42.648;23.292;2023-09-19T04:36:49;9.63;;;6.15;;
30934;SDS011;51033;42.648;23.292;2023-09-19T04:39:14;9.00;;;6.20;;
30934;SDS011;51033;42.648;23.292;2023-09-19T04:41:40;8.27;;;5.82;;
30934;SDS011;51033;42.648;23.292;2023-09-19T04:44:06;7.13;;;5.85;;
30934;SDS011;51033;42.648;23.292;2023-09-19T04:46:32;9.10;;;6.15;;
30934;SDS011;51033;42.648;23.292;2023-09-19T04:48:58;13.82;;;6.75;;
30934;SDS011;51033;42.648;23.292;2023-09-19T04:51:24;9.15;;;6.45;;
30934;SDS011;51033;42.648;23.292;2023-09-19T04:53:50;9.85;;;6.55;;
30934;SDS011;51033;42.648;23.292;2023-09-19T04:56:16;7.13;;;6.43;;
30934;SDS011;51033;42.648;23.292;2023-09-19T04:58:41;7.85;;;6.53;;
30934;SDS011;51033;42.648;23.292;2023-09-19T05:01:06;6.97;;;6.18;;
30934;SDS011;51033;42.648;23.292;2023-09-19T05:03:36;9.05;;;6.32;;
30934;SDS011;51033;42.648;23.292;2023-09-19T05:06:02;12.07;;;7.65;;
30934;SDS011;51033;42.648;23.292;2023-09-19T05:08:30;10.73;;;7.72;;
30934;SDS011;51033;42.648;23.292;2023-09-19T05:10:55;11.30;;;6.35;;
30934;SDS011;51033;42.648;23.292;2023-09-19T05:13:21;9.95;;;6.68;;
30934;SDS011;51033;42.648;23.292;2023-09-19T05:15:48;11.20;;;7.97;;
30934;SDS011;51033;42.648;23.292;2023-09-19T05:18:15;11.75;;;7.03;;
30934;SDS011;51033;42.648;23.292;2023-09-19T05:20:40;15.45;;;7.43;;
30934;SDS011;51033;42.648;23.292;2023-09-19T05:23:07;15.23;;;7.32;;
30934;SDS011;51033;42.648;23.292;2023-09-19T05:25:35;14.88;;;8.05;;
30934;SDS011;51033;42.648;23.292;2023-09-19T05:28:05;9.48;;;7.85;;
30934;SDS011;51033;42.648;23.292;2023-09-19T05:30:36;9.43;;;7.82;;
30934;SDS011;51033;42.648;23.292;2023-09-19T05:33:03;13.30;;;7.82;;
30934;SDS011;51033;42.648;23.292;2023-09-19T05:35:29;10.32;;;7.05;;
30934;SDS011;51033;42.648;23.292;2023-09-19T05:37:57;10.38;;;7.75;;
30934;SDS011;51033;42.648;23.292;2023-09-19T05:40:23;8.35;;;6.30;;
30934;SDS011;51033;42.648;23.292;2023-09-19T05:42:49;10.05;;;7.13;;
30934;SDS011;51033;42.648;23.292;2023-09-19T05:45:15;14.23;;;7.80;;
30934;SDS011;51033;42.648;23.292;2023-09-19T05:47:47;10.02;;;7.95;;
30934;SDS011;51033;42.648;23.292;2023-09-19T05:50:14;13.10;;;7.20;;
30934;SDS011;51033;42.648;23.292;2023-09-19T05:52:41;13.52;;;7.32;;
30934;SDS011;51033;42.648;23.292;2023-09-19T05:55:08;12.23;;;7.57;;
30934;SDS011;51033;42.648;23.292;2023-09-19T05:57:36;9.75;;;7.15;;
30934;SDS011;51033;42.648;23.292;2023-09-19T06:00:07;8.95;;;7.10;;
30934;SDS011;51033;42.648;23.292;2023-09-19T06:02:38;11.02;;;7.75;;
30934;SDS011;51033;42.648;23.292;2023-09-19T06:05:05;11.95;;;7.30;;
30934;SDS011;51033;42.648;23.292;2023-09-19T06:07:32;8.40;;;7.07;;
30934;SDS011;51033;42.648;23.292;2023-09-19T06:10:02;10.70;;;7.60;;
30934;SDS011;51033;42.648;23.292;2023-09-19T06:12:31;15.35;;;7.53;;
30934;SDS011;51033;42.648;23.292;2023-09-19T06:15:02;13.35;;;7.82;;
30934;SDS011;51033;42.648;23.292;2023-09-19T06:17:30;10.98;;;7.47;;
30934;SDS011;51033;42.648;23.292;2023-09-19T06:19:56;10.20;;;7.32;;
30934;SDS011;51033;42.648;23.292;2023-09-19T06:22:22;13.73;;;7.65;;
30934;SDS011;51033;42.648;23.292;2023-09-19T06:24:49;11.93;;;7.55;;
30934;SDS011;51033;42.648;23.292;2023-09-19T06:27:14;16.67;;;9.73;;
30934;SDS011;51033;42.648;23.292;2023-09-19T06:29:40;13.27;;;7.80;;
30934;SDS011;51033;42.648;23.292;2023-09-19T06:32:09;13.70;;;8.27;;
30934;SDS011;51033;42.648;23.292;2023-09-19T06:34:35;12.45;;;8.38;;
30934;SDS011;51033;42.648;23.292;2023-09-19T06:37:00;19.15;;;7.80;;
30934;SDS011;51033;42.648;23.292;2023-09-19T06:39:26;11.07;;;8.02;;
30934;SDS011;51033;42.648;23.292;2023-09-19T06:41:51;10.20;;;8.57;;
30934;SDS011;51033;42.648;23.292;2023-09-19T06:44:20;13.25;;;7.45;;
30934;SDS011;51033;42.648;23.292;2023-09-19T06:46:49;16.13;;;7.10;;
30934;SDS011;51033;42.648;23.292;2023-09-19T06:49:16;22.48;;;6.80;;
30934;SDS011;51033;42.648;23.292;2023-09-19T06:51:42;11.85;;;7.93;;
30934;SDS011;51033;42.648;23.292;2023-09-19T06:54:08;10.68;;;7.93;;
30934;SDS011;51033;42.648;23.292;2023-09-19T06:56:34;11.38;;;7.63;;
30934;SDS011;51033;42.648;23.292;2023-09-19T06:58:59;8.60;;;6.43;;
30934;SDS011;51033;42.648;23.292;2023-09-19T07:01:25;9.27;;;6.85;;
30934;SDS011;51033;42.648;23.292;2023-09-19T07:03:51;17.17;;;7.50;;
30934;SDS011;51033;42.648;23.292;2023-09-19T07:06:18;10.27;;;6.63;;
30934;SDS011;51033;42.648;23.292;2023-09-19T07:08:43;18.08;;;7.65;;
30934;SDS011;51033;42.648;23.292;2023-09-19T07:11:10;10.93;;;6.82;;
30934;SDS011;51033;42.648;23.292;2023-09-19T07:13:37;12.35;;;7.88;;
30934;SDS011;51033;42.648;23.292;2023-09-19T07:16:03;10.27;;;6.93;;
30934;SDS011;51033;42.648;23.292;2023-09-19T07:18:29;13.40;;;5.95;;
30934;SDS011;51033;42.648;23.292;2023-09-19T07:20:56;10.40;;;5.35;;
30934;SDS011;51033;42.648;23.292;2023-09-19T07:23:26;12.82;;;5.70;;
30934;SDS011;51033;42.648;23.292;2023-09-19T07:25:52;12.07;;;6.00;;
30934;SDS011;51033;42.648;23.292;2023-09-19T07:28:21;12.00;;;6.18;;
30934;SDS011;51033;42.648;23.292;2023-09-19T07:30:47;11.48;;;6.70;;
30934;SDS011;51033;42.648;23.292;2023-09-19T07:33:13;12.48;;;6.53;;
30934;SDS011;51033;42.648;23.292;2023-09-19T07:35:38;13.93;;;6.82;;
30934;SDS011;51033;42.648;23.292;2023-09-19T07:38:07;10.57;;;5.68;;
30934;SDS011;51033;42.648;23.292;2023-09-19T07:40:33;10.02;;;6.32;;
30934;SDS011;51033;42.648;23.292;2023-09-19T07:42:58;11.20;;;6.35;;
30934;SDS011;51033;42.648;23.292;2023-09-19T07:45:36;12.25;;;6.72;;
30934;SDS011;51033;42.648;23.292;2023-09-19T07:48:01;14.30;;;6.03;;
30934;SDS011;51033;42.648;23.292;2023-09-19T07:50:33;8.63;;;6.28;;
30934;SDS011;51033;42.648;23.292;2023-09-19T07:53:01;10.45;;;5.90;;
30934;SDS011;51033;42.648;23.292;2023-09-19T07:55:30;13.02;;;6.95;;
30934;SDS011;51033;42.648;23.292;2023-09-19T07:57:55;10.98;;;6.60;;
30934;SDS011;51033;42.648;23.292;2023-09-19T08:00:21;13.00;;;6.43;;
30934;SDS011;51033;42.648;23.292;2023-09-19T08:02:47;20.23;;;8.35;;
30934;SDS011;51033;42.648;23.292;2023-09-19T08:05:17;13.63;;;7.88;;
30934;SDS011;51033;42.648;23.292;2023-09-19T08:07:44;17.13;;;7.53;;
30934;SDS011;51033;42.648;23.292;2023-09-19T08:10:13;17.27;;;8.30;;
30934;SDS011;51033;42.648;23.292;2023-09-19T08:12:41;15.88;;;8.52;;
30934;SDS011;51033;42.648;23.292;2023-09-19T08:15:16;14.20;;;8.00;;
30934;SDS011;51033;42.648;23.292;2023-09-19T08:17:46;15.10;;;7.47;;
30934;SDS011;51033;42.648;23.292;2023-09-19T08:20:12;15.80;;;7.70;;
30934;SDS011;51033;42.648;23.292;2023-09-19T08:22:53;12.07;;;7.65;;
30934;SDS011;51033;42.648;23.292;2023-09-19T08:25:21;9.52;;;6.38;;
30934;SDS011;51033;42.648;23.292;2023-09-19T08:27:48;9.70;;;6.47;;
30934;SDS011;51033;42.648;23.292;2023-09-19T08:30:17;16.92;;;6.57;;
30934;SDS011;51033;42.648;23.292;2023-09-19T08:32:45;9.57;;;6.63;;
30934;SDS011;51033;42.648;23.292;2023-09-19T08:35:11;11.40;;;6.45;;
30934;SDS011;51033;42.648;23.292;2023-09-19T08:37:36;9.63;;;6.38;;
30934;SDS011;51033;42.648;23.292;2023-09-19T08:40:02;19.92;;;7.53;;
30934;SDS011;51033;42.648;23.292;2023-09-19T08:42:28;13.13;;;6.95;;
30934;SDS011;51033;42.648;23.292;2023-09-19T08:44:54;11.60;;;7.18;;
30934;SDS011;51033;42.648;23.292;2023-09-19T08:47:25;13.45;;;7.18;;
30934;SDS011;51033;42.648;23.292;2023-09-19T08:52:43;12.15;;;7.03;;
30934;SDS011;51033;42.648;23.292;2023-09-19T08:55:12;14.95;;;7.78;;
30934;SDS011;51033;42.648;23.292;2023-09-19T08:57:45;14.85;;;8.20;;
30934;SDS011;51033;42.648;23.292;2023-09-19T09:00:14;17.33;;;7.30;;
30934;SDS011;51033;42.648;23.292;2023-09-19T09:02:42;16.02;;;6.15;;
30934;SDS011;51033;42.648;23.292;2023-09-19T09:05:09;10.00;;;6.50;;
30934;SDS011;51033;42.648;23.292;2023-09-19T09:07:39;16.92;;;6.63;;
30934;SDS011;51033;42.648;23.292;2023-09-19T09:10:05;10.00;;;7.45;;
30934;SDS011;51033;42.648;23.292;2023-09-19T09:12:32;14.23;;;6.95;;
30934;SDS011;51033;42.648;23.292;2023-09-19T09:14:59;11.77;;;5.85;;
30934;SDS011;51033;42.648;23.292;2023-09-19T09:17:25;11.27;;;7.20;;
30934;SDS011;51033;42.648;23.292;2023-09-19T09:19:54;9.45;;;7.13;;
30934;SDS011;51033;42.648;23.292;2023-09-19T09:22:19;11.50;;;6.40;;
30934;SDS011;51033;42.648;23.292;2023-09-19T09:24:52;28.23;;;8.07;;
30934;SDS011;51033;42.648;23.292;2023-09-19T09:27:19;9.27;;;6.45;;
30934;SDS011;51033;42.648;23.292;2023-09-19T09:29:45;10.38;;;6.88;;
30934;SDS011;51033;42.648;23.292;2023-09-19T09:32:20;12.63;;;6.88;;
30934;SDS011;51033;42.648;23.292;2023-09-19T09:34:57;13.13;;;7.40;;
30934;SDS011;51033;42.648;23.292;2023-09-19T09:37:25;17.15;;;6.68;;
30934;SDS011;51033;42.648;23.292;2023-09-19T09:39:53;13.45;;;6.95;;
30934;SDS011;51033;42.648;23.292;2023-09-19T09:42:34;10.43;;;7.00;;
30934;SDS011;51033;42.648;23.292;2023-09-19T09:47:44;16.40;;;7.60;;
30934;SDS011;51033;42.648;23.292;2023-09-19T09:50:38;12.73;;;7.22;;
30934;SDS011;51033;42.648;23.292;2023-09-19T09:53:28;20.38;;;6.85;;
30934;SDS011;51033;42.648;23.292;2023-09-19T09:56:02;13.50;;;6.95;;
30934;SDS011;51033;42.648;23.292;2023-09-19T10:01:13;16.90;;;7.88;;
30934;SDS011;51033;42.648;23.292;2023-09-19T10:03:41;15.35;;;7.15;;
30934;SDS011;51033;42.648;23.292;2023-09-19T10:06:15;7.72;;;6.15;;
30934;SDS011;51033;42.648;23.292;2023-09-19T10:09:00;24.70;;;7.00;;
30934;SDS011;51033;42.648;23.292;2023-09-19T10:11:30;12.45;;;6.70;;
30934;SDS011;51033;42.648;23.292;2023-09-19T10:13:56;10.15;;;6.07;;
30934;SDS011;51033;42.648;23.292;2023-09-19T10:16:27;19.67;;;8.40;;
30934;SDS011;51033;42.648;23.292;2023-09-19T10:18:56;13.32;;;6.80;;
30934;SDS011;51033;42.648;23.292;2023-09-19T10:21:27;11.77;;;7.00;;
30934;SDS011;51033;42.648;23.292;2023-09-19T10:23:55;15.10;;;7.15;;
30934;SDS011;51033;42.648;23.292;2023-09-19T10:26:24;14.85;;;9.15;;
30934;SDS011;51033;42.648;23.292;2023-09-19T10:28:55;13.77;;;6.68;;
30934;SDS011;51033;42.648;23.292;2023-09-19T10:31:22;10.35;;;6.75;;
30934;SDS011;51033;42.648;23.292;2023-09-19T10:33:50;14.55;;;7.68;;
30934;SDS011;51033;42.648;23.292;2023-09-19T10:36:18;15.10;;;6.95;;
30934;SDS011;51033;42.648;23.292;2023-09-19T10:38:45;14.10;;;6.57;;
30934;SDS011;51033;42.648;23.292;2023-09-19T10:41:14;12.07;;;7.03;;
30934;SDS011;51033;42.648;23.292;2023-09-19T10:43:43;11.65;;;7.55;;
30934;SDS011;51033;42.648;23.292;2023-09-19T10:46:11;13.63;;;6.75;;
30934;SDS011;51033;42.648;23.292;2023-09-19T10:48:38;14.80;;;7.35;;
30934;SDS011;51033;42.648;23.292;2023-09-19T10:51:09;14.23;;;6.78;;
30934;SDS011;51033;42.648;23.292;2023-09-19T10:56:10;14.60;;;7.45;;
30934;SDS011;51033;42.648;23.292;2023-09-19T10:59:05;16.80;;;6.57;;
30934;SDS011;51033;42.648;23.292;2023-09-19T11:01:41;10.57;;;6.03;;
30934;SDS011;51033;42.648;23.292;2023-09-19T11:04:26;13.77;;;6.85;;
30934;SDS011;51033;42.648;23.292;2023-09-19T11:07:13;13.27;;;6.50;;
30934;SDS011;51033;42.648;23.292;2023-09-19T11:09:50;12.73;;;6.75;;
30934;SDS011;51033;42.648;23.292;2023-09-19T11:14:58;7.85;;;6.18;;
30934;SDS011;51033;42.648;23.292;2023-09-19T11:36:03;12.40;;;6.32;;
30934;SDS011;51033;42.648;23.292;2023-09-19T11:46:28;17.17;;;8.27;;
30934;SDS011;51033;42.648;23.292;2023-09-19T11:48:55;13.00;;;8.15;;
30934;SDS011;51033;42.648;23.292;2023-09-19T11:51:39;9.85;;;5.72;;
30934;SDS011;51033;42.648;23.292;2023-09-19T11:54:10;11.55;;;5.78;;
30934;SDS011;51033;42.648;23.292;2023-09-19T11:56:54;13.10;;;5.88;;
30934;SDS011;51033;42.648;23.292;2023-09-19T11:59:20;11.68;;;6.53;;
30934;SDS011;51033;42.648;23.292;2023-09-19T12:01:51;6.93;;;5.22;;
30934;SDS011;51033;42.648;23.292;2023-09-19T12:04:39;10.38;;;6.22;;
30934;SDS011;51033;42.648;23.292;2023-09-19T12:07:11;9.50;;;5.88;;
30934;SDS011;51033;42.648;23.292;2023-09-19T12:09:41;10.52;;;6.45;;
30934;SDS011;51033;42.648;23.292;2023-09-19T12:12:22;14.00;;;5.95;;
30934;SDS011;51033;42.648;23.292;2023-09-19T12:14:49;8.45;;;5.75;;
30934;SDS011;51033;42.648;23.292;2023-09-19T12:17:15;10.38;;;5.95;;
30934;SDS011;51033;42.648;23.292;2023-09-19T12:19:49;9.07;;;5.97;;
30934;SDS011;51033;42.648;23.292;2023-09-19T12:22:21;11.60;;;5.80;;
30934;SDS011;51033;42.648;23.292;2023-09-19T12:24:46;9.18;;;6.15;;
30934;SDS011;51033;42.648;23.292;2023-09-19T12:27:13;9.23;;;5.85;;
30934;SDS011;51033;42.648;23.292;2023-09-19T12:29:42;10.00;;;5.70;;
30934;SDS011;51033;42.648;23.292;2023-09-19T12:32:13;10.70;;;5.97;;
30934;SDS011;51033;42.648;23.292;2023-09-19T12:34:41;7.45;;;5.47;;
30934;SDS011;51033;42.648;23.292;2023-09-19T12:37:16;11.27;;;6.15;;
30934;SDS011;51033;42.648;23.292;2023-09-19T12:39:48;9.85;;;5.95;;
30934;SDS011;51033;42.648;23.292;2023-09-19T12:42:22;10.27;;;5.30;;
30934;SDS011;51033;42.648;23.292;2023-09-19T12:44:49;9.75;;;5.22;;
30934;SDS011;51033;42.648;23.292;2023-09-19T12:47:21;9.27;;;4.80;;
30934;SDS011;51033;42.648;23.292;2023-09-19T12:52:50;10.13;;;5.88;;
30934;SDS011;51033;42.648;23.292;2023-09-19T12:55:21;9.00;;;6.00;;
30934;SDS011;51033;42.648;23.292;2023-09-19T12:57:57;7.72;;;5.30;;
30934;SDS011;51033;42.648;23.292;2023-09-19T13:00:31;12.48;;;6.03;;
30934;SDS011;51033;42.648;23.292;2023-09-19T13:05:55;10.45;;;4.95;;
30934;SDS011;51033;42.648;23.292;2023-09-19T13:08:24;5.75;;;5.13;;
30934;SDS011;51033;42.648;23.292;2023-09-19T13:11:16;6.38;;;4.95;;
30934;SDS011;51033;42.648;23.292;2023-09-19T13:13:47;11.70;;;6.13;;
30934;SDS011;51033;42.648;23.292;2023-09-19T13:16:18;8.52;;;4.40;;
30934;SDS011;51033;42.648;23.292;2023-09-19T13:18:47;10.32;;;5.75;;
30934;SDS011;51033;42.648;23.292;2023-09-19T13:21:28;7.63;;;5.47;;
30934;SDS011;51033;42.648;23.292;2023-09-19T13:24:17;9.70;;;4.72;;
30934;SDS011;51033;42.648;23.292;2023-09-19T13:26:52;7.03;;;5.00;;
30934;SDS011;51033;42.648;23.292;2023-09-19T13:29:18;8.05;;;5.95;;
30934;SDS011;51033;42.648;23.292;2023-09-19T13:31:47;12.35;;;5.28;;
30934;SDS011;51033;42.648;23.292;2023-09-19T13:34:13;8.40;;;4.65;;
30934;SDS011;51033;42.648;23.292;2023-09-19T13:36:41;7.38;;;5.47;;
30934;SDS011;51033;42.648;23.292;2023-09-19T13:39:07;9.13;;;5.00;;
30934;SDS011;51033;42.648;23.292;2023-09-19T13:41:34;10.70;;;5.90;;
30934;SDS011;51033;42.648;23.292;2023-09-19T13:44:01;8.35;;;5.55;;
30934;SDS011;51033;42.648;23.292;2023-09-19T13:46:27;8.70;;;5.25;;
30934;SDS011;51033;42.648;23.292;2023-09-19T13:48:53;7.55;;;5.40;;
30934;SDS011;51033;42.648;23.292;2023-09-19T13:51:21;7.63;;;4.78;;
30934;SDS011;51033;42.648;23.292;2023-09-19T13:53:50;9.43;;;4.88;;
30934;SDS011;51033;42.648;23.292;2023-09-19T13:56:16;9.18;;;4.15;;
30934;SDS011;51033;42.648;23.292;2023-09-19T13:58:41;7.95;;;4.80;;
30934;SDS011;51033;42.648;23.292;2023-09-19T14:01:07;8.98;;;4.57;;
30934;SDS011;51033;42.648;23.292;2023-09-19T14:03:37;8.00;;;4.55;;
30934;SDS011;51033;42.648;23.292;2023-09-19T14:06:03;6.68;;;4.55;;
30934;SDS011;51033;42.648;23.292;2023-09-19T14:08:29;7.70;;;4.70;;
30934;SDS011;51033;42.648;23.292;2023-09-19T14:10:54;10.95;;;4.63;;
30934;SDS011;51033;42.648;23.292;2023-09-19T14:13:19;9.02;;;4.47;;
30934;SDS011;51033;42.648;23.292;2023-09-19T14:15:45;7.88;;;4.88;;
30934;SDS011;51033;42.648;23.292;2023-09-19T14:18:11;8.95;;;4.47;;
30934;SDS011;51033;42.648;23.292;2023-09-19T14:20:40;8.23;;;4.63;;
30934;SDS011;51033;42.648;23.292;2023-09-19T14:23:06;5.88;;;5.22;;
30934;SDS011;51033;42.648;23.292;2023-09-19T14:25:33;9.82;;;5.43;;
30934;SDS011;51033;42.648;23.292;2023-09-19T14:27:59;7.10;;;4.05;;
30934;SDS011;51033;42.648;23.292;2023-09-19T14:30:25;7.45;;;4.82;;
30934;SDS011;51033;42.648;23.292;2023-09-19T14:32:50;9.90;;;8.60;;
30934;SDS011;51033;42.648;23.292;2023-09-19T14:35:16;13.75;;;10.35;;
30934;SDS011;51033;42.648;23.292;2023-09-19T14:37:44;10.98;;;9.45;;
30934;SDS011;51033;42.648;23.292;2023-09-19T14:40:10;10.43;;;8.48;;
30934;SDS011;51033;42.648;23.292;2023-09-19T14:42:38;9.55;;;7.88;;
30934;SDS011;51033;42.648;23.292;2023-09-19T14:45:04;12.85;;;7.63;;
30934;SDS011;51033;42.648;23.292;2023-09-19T14:47:31;12.05;;;8.63;;
30934;SDS011;51033;42.648;23.292;2023-09-19T14:49:58;14.95;;;7.75;;
30934;SDS011;51033;42.648;23.292;2023-09-19T14:52:25;7.72;;;6.30;;
30934;SDS011;51033;42.648;23.292;2023-09-19T14:54:53;9.30;;;6.43;;
30934;SDS011;51033;42.648;23.292;2023-09-19T14:57:18;7.03;;;6.13;;
30934;SDS011;51033;42.648;23.292;2023-09-19T14:59:44;10.45;;;6.03;;
30934;SDS011;51033;42.648;23.292;2023-09-19T15:02:09;7.85;;;5.93;;
30934;SDS011;51033;42.648;23.292;2023-09-19T15:04:34;9.32;;;5.78;;
30934;SDS011;51033;42.648;23.292;2023-09-19T15:07:00;5.30;;;4.55;;
30934;SDS011;51033;42.648;23.292;2023-09-19T15:09:25;6.78;;;4.50;;
30934;SDS011;51033;42.648;23.292;2023-09-19T15:11:52;7.13;;;4.47;;
30934;SDS011;51033;42.648;23.292;2023-09-19T15:14:18;6.13;;;4.80;;
30934;SDS011;51033;42.648;23.292;2023-09-19T15:16:43;5.70;;;5.05;;
30934;SDS011;51033;42.648;23.292;2023-09-19T15:19:09;5.15;;;4.57;;
30934;SDS011;51033;42.648;23.292;2023-09-19T15:21:35;6.75;;;4.40;;
30934;SDS011;51033;42.648;23.292;2023-09-19T15:24:02;9.63;;;4.35;;
30934;SDS011;51033;42.648;23.292;2023-09-19T15:26:28;6.80;;;4.70;;
30934;SDS011;51033;42.648;23.292;2023-09-19T15:28:55;6.28;;;4.95;;
30934;SDS011;51033;42.648;23.292;2023-09-19T15:31:20;8.85;;;5.30;;
30934;SDS011;51033;42.648;23.292;2023-09-19T15:33:46;6.45;;;4.68;;
30934;SDS011;51033;42.648;23.292;2023-09-19T15:36:12;6.97;;;4.78;;
30934;SDS011;51033;42.648;23.292;2023-09-19T15:41:35;5.82;;;5.22;;
30934;SDS011;51033;42.648;23.292;2023-09-19T15:44:05;7.13;;;4.97;;
30934;SDS011;51033;42.648;23.292;2023-09-19T15:46:40;7.90;;;4.65;;
30934;SDS011;51033;42.648;23.292;2023-09-19T15:49:06;5.20;;;4.70;;